createdAt,value
2023-03-27T00:02:00.242Z,2.50
2023-03-27T00:06:17.228Z,2.60
2023-03-27T00:10:29.820Z,2.60
2023-03-27T00:14:42.315Z,2.85
2023-03-27T00:18:55.742Z,2.63
2023-03-27T00:23:08.286Z,3.95
2023-03-27T00:27:20.588Z,4.35
2023-03-27T00:31:32.951Z,3.80
2023-03-27T00:35:47.643Z,3.28
2023-03-27T00:40:00.594Z,2.90
2023-03-27T00:44:25.795Z,2.80
2023-03-27T00:48:38.489Z,2.55
2023-03-27T00:52:56.567Z,2.75
2023-03-27T00:57:15.464Z,2.42
2023-03-27T01:01:29.478Z,1.88
2023-03-27T01:05:42.141Z,2.30
2023-03-27T01:09:56.705Z,2.28
2023-03-27T01:14:16.648Z,2.40
2023-03-27T01:18:49.209Z,2.17
2023-03-27T01:23:59.660Z,2.35
2023-03-27T01:28:33.959Z,2.08
2023-03-27T01:33:01.800Z,2.22
2023-03-27T01:38:00.127Z,2.17
2023-03-27T01:42:21.243Z,2.35
2023-03-27T01:46:42.041Z,2.17
2023-03-27T01:51:04.987Z,2.10
2023-03-27T01:55:24.406Z,2.28
2023-03-27T01:59:44.880Z,2.20
2023-03-27T02:04:02.128Z,2.45
2023-03-27T02:08:31.506Z,2.03
2023-03-27T02:13:01.597Z,2.35
2023-03-27T02:21:28.146Z,2.25
2023-03-27T02:25:45.708Z,1.90
2023-03-27T02:30:16.904Z,2.20
2023-03-27T02:34:39.834Z,1.95
2023-03-27T02:39:10.383Z,1.92
2023-03-27T02:43:35.106Z,1.95
2023-03-27T02:48:27.764Z,1.63
2023-03-27T02:52:53.920Z,1.58
2023-03-27T02:57:11.939Z,1.70
2023-03-27T03:01:45.756Z,1.95
2023-03-27T03:06:07.515Z,2.03
2023-03-27T03:10:21.523Z,1.60
2023-03-27T03:14:39.560Z,1.92
2023-03-27T03:18:52.252Z,1.50
2023-03-27T03:23:04.649Z,1.80
2023-03-27T03:27:21.267Z,1.67
2023-03-27T03:31:43.786Z,1.88
2023-03-27T03:36:01.029Z,1.83
2023-03-27T03:40:19.630Z,1.50
2023-03-27T03:44:35.653Z,1.80
2023-03-27T03:48:59.238Z,2.22
2023-03-27T03:53:12.726Z,1.75
2023-03-27T03:57:25.063Z,1.40
2023-03-27T04:01:51.919Z,1.58
2023-03-27T04:06:07.981Z,1.60
2023-03-27T04:10:20.375Z,1.50
2023-03-27T04:14:33.489Z,1.77
2023-03-27T04:18:54.750Z,1.50
2023-03-27T04:23:10.406Z,1.43
2023-03-27T04:27:25.162Z,1.50
2023-03-27T04:36:18.723Z,1.67
2023-03-27T04:40:39.668Z,1.70
2023-03-27T04:44:53.329Z,1.60
2023-03-27T04:49:06.344Z,2.05
2023-03-27T04:53:38.090Z,1.93
2023-03-27T04:57:51.372Z,2.10
2023-03-27T05:02:05.385Z,1.60
2023-03-27T05:06:28.248Z,2.28
2023-03-27T05:10:40.868Z,1.67
2023-03-27T05:14:53.324Z,2.00
2023-03-27T05:19:20.495Z,1.95
2023-03-27T05:23:42.467Z,2.10
2023-03-27T05:27:55.409Z,1.83
2023-03-27T05:32:10.958Z,2.05
2023-03-27T05:36:30.122Z,2.58
2023-03-27T05:40:43.877Z,2.72
2023-03-27T05:45:00.582Z,3.20
2023-03-27T05:49:13.529Z,2.90
2023-03-27T05:53:28.379Z,2.90
2023-03-27T05:58:00.154Z,2.70
2023-03-27T06:02:21.109Z,2.20
2023-03-27T06:06:44.042Z,2.40
2023-03-27T06:10:57.965Z,2.42
2023-03-27T06:15:18.136Z,2.45
2023-03-27T06:19:37.751Z,3.00
2023-03-27T06:23:50.157Z,2.75
2023-03-27T06:28:08.588Z,2.88
2023-03-27T06:32:30.037Z,2.88
2023-03-27T06:36:43.314Z,2.97
2023-03-27T06:40:58.133Z,3.20
2023-03-27T06:45:12.081Z,4.00
2023-03-27T06:49:47.929Z,4.00
2023-03-27T06:54:06.240Z,4.70
2023-03-27T06:58:19.401Z,4.20
2023-03-27T07:02:32.117Z,5.60
2023-03-27T07:07:02.670Z,5.35
2023-03-27T07:11:19.378Z,4.18
2023-03-27T07:15:40.153Z,4.10
2023-03-27T07:19:54.125Z,4.20
2023-03-27T07:24:10.275Z,4.85
2023-03-27T07:28:23.502Z,4.43
2023-03-27T07:32:37.990Z,4.22
2023-03-27T07:36:53.410Z,4.07
2023-03-27T07:41:07.411Z,4.15
2023-03-27T07:45:38.724Z,4.40
2023-03-27T07:49:51.261Z,3.92
2023-03-27T07:54:07.557Z,3.63
2023-03-27T07:58:23.733Z,4.10
2023-03-27T08:02:37.973Z,3.47
2023-03-27T08:06:51.967Z,3.50
2023-03-27T08:11:13.513Z,3.80
2023-03-27T08:15:32.531Z,4.10
2023-03-27T08:19:46.685Z,4.30
2023-03-27T08:24:04.984Z,3.90
2023-03-27T08:28:20.486Z,4.37
2023-03-27T08:32:33.297Z,4.55
2023-03-27T08:36:52.810Z,4.97
2023-03-27T08:41:08.005Z,5.60
2023-03-27T08:45:30.864Z,5.63
2023-03-27T08:50:15.669Z,5.72
2023-03-27T08:54:35.131Z,5.50
2023-03-27T08:58:49.155Z,6.50
2023-03-27T09:03:29.859Z,6.30
2023-03-27T09:07:50.312Z,5.80
2023-03-27T09:12:26.188Z,6.18
2023-03-27T09:16:49.970Z,5.75
2023-03-27T09:21:20.034Z,6.93
2023-03-27T09:25:38.304Z,7.20
2023-03-27T09:30:11.338Z,6.18
2023-03-27T09:34:33.746Z,5.00
2023-03-27T09:38:51.264Z,4.97
2023-03-27T09:43:24.537Z,4.65
2023-03-27T09:47:45.580Z,4.70
2023-03-27T09:52:00.483Z,3.60
2023-03-27T09:56:39.129Z,2.42
2023-03-27T10:01:23.633Z,2.90
2023-03-27T10:05:39.237Z,3.58
2023-03-27T10:10:09.746Z,4.97
2023-03-27T10:14:47.656Z,6.05
2023-03-27T10:19:20.868Z,4.35
2023-03-27T10:23:51.784Z,4.50
2023-03-27T10:28:23.129Z,3.97
2023-03-27T10:32:57.320Z,3.60
2023-03-27T10:37:34.627Z,4.40
2023-03-27T10:42:09.657Z,3.67
2023-03-27T10:46:29.552Z,4.30
2023-03-27T10:50:58.122Z,4.20
2023-03-27T10:55:55.970Z,4.32
2023-03-27T11:00:18.728Z,3.72
2023-03-27T11:04:49.611Z,3.97
2023-03-27T11:09:16.291Z,3.17
2023-03-27T11:13:45.656Z,3.03
2023-03-27T11:18:03.341Z,2.72
2023-03-27T11:22:45.156Z,3.17
2023-03-27T11:27:39.336Z,2.85
2023-03-27T11:31:53.890Z,2.85
2023-03-27T11:36:51.780Z,2.50
2023-03-27T11:41:15.245Z,1.88
2023-03-27T11:45:49.270Z,2.17
2023-03-27T11:50:26.660Z,2.20
2023-03-27T11:55:06.854Z,2.63
2023-03-27T11:59:36.005Z,2.60
2023-03-27T12:04:07.124Z,2.72
2023-03-27T12:09:11.204Z,4.25
2023-03-27T12:14:40.096Z,2.15
2023-03-27T12:19:06.016Z,2.50
2023-03-27T12:24:16.409Z,1.92
2023-03-27T12:29:03.075Z,2.20
2023-03-27T12:34:05.475Z,2.75
2023-03-27T12:38:31.661Z,2.30
2023-03-27T12:42:54.035Z,2.10
2023-03-27T12:47:14.605Z,1.75
2023-03-27T12:51:54.104Z,2.13
2023-03-27T12:56:34.729Z,1.90
2023-03-27T13:01:00.803Z,2.17
2023-03-27T13:06:21.070Z,2.15
2023-03-27T13:10:34.638Z,2.45
2023-03-27T13:14:57.630Z,2.88
2023-03-27T13:19:32.096Z,2.58
2023-03-27T13:24:08.794Z,2.38
2023-03-27T13:28:37.554Z,2.33
2023-03-27T13:33:28.294Z,2.50
2023-03-27T13:37:48.429Z,2.30
2023-03-27T13:42:32.273Z,2.05
2023-03-27T13:46:51.278Z,2.35
2023-03-27T13:51:13.362Z,3.00
2023-03-27T13:55:57.078Z,3.67
2023-03-27T14:00:57.364Z,3.25
2023-03-27T14:05:35.885Z,3.50
2023-03-27T14:10:38.064Z,3.87
2023-03-27T14:15:46.588Z,4.00
2023-03-27T14:20:23.603Z,3.05
2023-03-27T14:25:01.304Z,1.80
2023-03-27T14:29:36.820Z,2.15
2023-03-27T14:34:12.430Z,2.92
2023-03-27T14:38:31.367Z,2.65
2023-03-27T14:42:49.901Z,2.20
2023-03-27T14:47:10.237Z,3.00
2023-03-27T14:51:35.100Z,3.00
2023-03-27T14:55:49.564Z,3.28
2023-03-27T15:00:23.750Z,3.75
2023-03-27T15:04:40.482Z,5.43
2023-03-27T15:09:05.682Z,5.03
2023-03-27T15:13:48.234Z,3.20
2023-03-27T15:18:15.639Z,2.90
2023-03-27T15:22:31.123Z,2.40
2023-03-27T15:26:43.719Z,3.20
2023-03-27T15:31:01.133Z,2.58
2023-03-27T15:35:36.283Z,1.60
2023-03-27T15:40:26.867Z,2.20
2023-03-27T15:44:42.153Z,2.90
2023-03-27T15:48:56.619Z,3.30
2023-03-27T15:53:09.097Z,3.40
2023-03-27T15:57:21.905Z,3.60
2023-03-27T16:01:40.910Z,4.10
2023-03-27T16:05:56.718Z,5.13
2023-03-27T16:10:10.699Z,3.60
2023-03-27T16:14:32.696Z,4.00
2023-03-27T16:18:49.367Z,3.08
2023-03-27T16:23:02.546Z,2.67
2023-03-27T16:27:15.073Z,3.60
2023-03-27T16:31:27.700Z,4.13
2023-03-27T16:35:40.080Z,3.72
2023-03-27T16:39:53.743Z,3.50
2023-03-27T16:44:06.181Z,3.80
2023-03-27T16:48:23.913Z,3.40
2023-03-27T16:52:36.313Z,3.55
2023-03-27T16:56:48.866Z,3.00
2023-03-27T17:01:01.521Z,2.42
2023-03-27T17:05:14.826Z,2.30
2023-03-27T17:09:27.912Z,2.00
2023-03-27T17:13:43.329Z,2.50
2023-03-27T17:17:56.237Z,3.75
2023-03-27T17:22:09.619Z,3.78
2023-03-27T17:26:28.187Z,3.33
2023-03-27T17:30:56.598Z,2.60
2023-03-27T17:35:13.785Z,2.70
2023-03-27T17:39:27.212Z,1.60
2023-03-27T17:43:40.532Z,1.30
2023-03-27T17:47:53.027Z,1.40
2023-03-27T17:52:08.562Z,1.60
2023-03-27T17:56:22.991Z,1.85
2023-03-27T18:00:36.648Z,1.10
2023-03-27T18:04:52.423Z,1.60
2023-03-27T18:09:05.287Z,2.50
2023-03-27T18:13:21.400Z,1.35
2023-03-27T18:17:35.771Z,0.90
2023-03-27T18:21:49.946Z,1.08
2023-03-27T18:26:08.991Z,1.60
2023-03-27T18:30:21.670Z,1.70
2023-03-27T18:34:34.308Z,2.08
2023-03-27T18:38:49.727Z,1.70
2023-03-27T18:43:02.350Z,1.60
2023-03-27T18:47:14.781Z,2.60
2023-03-27T18:51:27.152Z,2.50
2023-03-27T18:55:39.610Z,2.47
2023-03-27T18:59:52.264Z,3.65
2023-03-27T19:04:04.960Z,3.20
2023-03-27T19:08:18.730Z,2.90
2023-03-27T19:12:32.085Z,3.67
2023-03-27T19:17:01.048Z,3.40
2023-03-27T19:21:31.954Z,3.50
2023-03-27T19:25:55.148Z,4.25
2023-03-27T19:30:09.015Z,4.10
2023-03-27T19:34:32.666Z,2.70
2023-03-27T19:38:48.885Z,3.80
2023-03-27T19:43:01.329Z,3.92
2023-03-27T19:47:13.879Z,2.88
2023-03-27T19:51:26.374Z,2.55
2023-03-27T19:55:38.930Z,3.33
2023-03-27T19:59:51.743Z,2.65
2023-03-27T20:04:04.920Z,3.70
2023-03-27T20:08:18.308Z,3.88
2023-03-27T20:12:33.046Z,3.08
2023-03-27T20:16:46.846Z,2.83
2023-03-27T20:21:02.490Z,3.08
2023-03-27T20:25:15.694Z,3.10
2023-03-27T20:29:29.773Z,2.72
2023-03-27T20:33:42.159Z,2.00
2023-03-27T20:37:58.055Z,2.00
2023-03-27T20:42:15.966Z,2.33
2023-03-27T20:46:33.181Z,2.03
2023-03-27T20:50:55.788Z,1.50
2023-03-27T20:55:09.203Z,1.40
2023-03-27T20:59:21.938Z,1.20
2023-03-27T21:03:37.126Z,1.10
2023-03-27T21:07:51.582Z,0.70
2023-03-27T21:12:04.114Z,1.00
2023-03-27T21:16:16.715Z,0.80
2023-03-27T21:20:29.119Z,0.90
2023-03-27T21:24:41.441Z,0.95
2023-03-27T21:28:53.969Z,0.70
2023-03-27T21:33:07.503Z,0.70
2023-03-27T21:37:20.054Z,0.70
2023-03-27T21:41:32.667Z,1.90
2023-03-27T21:45:47.033Z,0.77
2023-03-27T21:49:59.444Z,0.90
2023-03-27T21:54:11.866Z,0.90
2023-03-27T21:58:25.026Z,0.85
2023-03-27T22:02:37.520Z,1.10
2023-03-27T22:06:50.064Z,0.73
2023-03-27T22:11:02.465Z,0.90
2023-03-27T22:15:14.839Z,1.08
2023-03-27T22:19:27.328Z,1.17
2023-03-27T22:23:39.816Z,1.00
2023-03-27T22:27:52.316Z,1.17
2023-03-27T22:32:04.830Z,1.20
2023-03-27T22:36:17.555Z,0.88
2023-03-27T22:40:30.130Z,0.63
2023-03-27T22:44:42.716Z,1.10
2023-03-27T22:48:56.863Z,0.70
2023-03-27T22:53:09.366Z,1.25
2023-03-27T22:57:21.665Z,1.42
2023-03-27T23:01:34.104Z,1.42
2023-03-27T23:05:49.371Z,1.30
2023-03-27T23:10:02.036Z,1.10
2023-03-27T23:14:14.678Z,1.35
2023-03-27T23:18:27.398Z,1.50
2023-03-27T23:22:39.797Z,1.30
2023-03-27T23:26:52.299Z,1.52
2023-03-27T23:31:07.432Z,1.60
2023-03-27T23:35:21.325Z,1.20
2023-03-27T23:39:33.706Z,0.90
2023-03-27T23:43:46.491Z,0.73
2023-03-27T23:47:58.888Z,0.60
2023-03-27T23:52:11.493Z,1.00
2023-03-27T23:56:23.883Z,0.98
